sensor_id;sensor_type;location;lat;lon;timestamp;temperature;humidity
4081;DHT22;2055;50.074;8.436;2024-01-15T00:03:42;-1.80;99.90
4081;DHT22;2055;50.074;8.436;2024-01-15T00:06:08;-1.90;99.90
4081;DHT22;2055;50.074;8.436;2024-01-15T00:08:34;-1.80;99.90
4081;DHT22;2055;50.074;8.436;2024-01-15T00:10:59;-1.80;99.90
4081;DHT22;2055;50.074;8.436;2024-01-15T00:13:25;-1.80;99.90
4081;DHT22;2055;50.074;8.436;2024-01-15T00:15:50;-1.70;99.90
4081;DHT22;2055;50.074;8.436;2024-01-15T00:18:16;-1.70;99.90
4081;DHT22;2055;50.074;8.436;2024-01-15T00:20:41;-1.70;99.90
4081;DHT22;2055;50.074;8.436;2024-01-15T00:23:07;-1.70;99.90
4081;DHT22;2055;50.074;8.436;2024-01-15T00:25:32;-1.70;99.90
4081;DHT22;2055;50.074;8.436;2024-01-15T00:27:58;-1.70;99.90
4081;DHT22;2055;50.074;8.436;2024-01-15T00:30:23;-1.70;99.90
4081;DHT22;2055;50.074;8.436;2024-01-15T00:35:15;-1.70;99.90
4081;DHT22;2055;50.074;8.436;2024-01-15T00:37:40;-1.70;99.90
4081;DHT22;2055;50.074;8.436;2024-01-15T00:40:06;-1.80;99.90
4081;DHT22;2055;50.074;8.436;2024-01-15T00:45:00;-1.70;99.90
4081;DHT22;2055;50.074;8.436;2024-01-15T00:49:51;-1.80;99.90
4081;DHT22;2055;50.074;8.436;2024-01-15T00:52:17;-1.70;99.90
4081;DHT22;2055;50.074;8.436;2024-01-15T00:54:42;-1.80;99.90
4081;DHT22;2055;50.074;8.436;2024-01-15T00:57:08;-1.50;99.90
4081;DHT22;2055;50.074;8.436;2024-01-15T00:59:34;-1.80;99.90
4081;DHT22;2055;50.074;8.436;2024-01-15T01:01:59;-1.70;99.90
4081;DHT22;2055;50.074;8.436;2024-01-15T01:04:25;-1.70;99.90
4081;DHT22;2055;50.074;8.436;2024-01-15T01:06:50;-1.80;99.90
4081;DHT22;2055;50.074;8.436;2024-01-15T01:09:16;-1.70;99.90
4081;DHT22;2055;50.074;8.436;2024-01-15T01:11:41;-1.70;99.90
4081;DHT22;2055;50.074;8.436;2024-01-15T01:14:07;-1.60;99.90
4081;DHT22;2055;50.074;8.436;2024-01-15T01:16:32;-1.60;99.90
4081;DHT22;2055;50.074;8.436;2024-01-15T01:19:07;-1.60;99.90
4081;DHT22;2055;50.074;8.436;2024-01-15T01:21:33;-1.60;99.90
4081;DHT22;2055;50.074;8.436;2024-01-15T01:26:25;-1.60;99.90
4081;DHT22;2055;50.074;8.436;2024-01-15T01:28:50;-1.60;99.90
4081;DHT22;2055;50.074;8.436;2024-01-15T01:31:16;-1.60;99.90
4081;DHT22;2055;50.074;8.436;2024-01-15T01:33:42;-1.60;99.90
4081;DHT22;2055;50.074;8.436;2024-01-15T01:36:11;-1.60;99.90
4081;DHT22;2055;50.074;8.436;2024-01-15T01:38:37;-1.50;99.90
4081;DHT22;2055;50.074;8.436;2024-01-15T01:41:03;-1.50;99.90
4081;DHT22;2055;50.074;8.436;2024-01-15T01:43:28;-1.50;99.90
4081;DHT22;2055;50.074;8.436;2024-01-15T01:45:56;-1.60;99.90
4081;DHT22;2055;50.074;8.436;2024-01-15T01:48:22;-1.50;99.90
4081;DHT22;2055;50.074;8.436;2024-01-15T01:50:50;-1.40;99.90
4081;DHT22;2055;50.074;8.436;2024-01-15T01:53:16;-1.40;99.90
4081;DHT22;2055;50.074;8.436;2024-01-15T01:55:41;-1.40;99.90
4081;DHT22;2055;50.074;8.436;2024-01-15T01:58:07;-1.40;99.90
4081;DHT22;2055;50.074;8.436;2024-01-15T02:00:34;-1.40;99.90
4081;DHT22;2055;50.074;8.436;2024-01-15T02:03:00;-1.40;99.90
4081;DHT22;2055;50.074;8.436;2024-01-15T02:05:28;-1.40;99.90
4081;DHT22;2055;50.074;8.436;2024-01-15T02:07:54;-1.40;99.90
4081;DHT22;2055;50.074;8.436;2024-01-15T02:10:20;-1.20;99.90
4081;DHT22;2055;50.074;8.436;2024-01-15T02:12:45;-1.30;99.90
4081;DHT22;2055;50.074;8.436;2024-01-15T02:15:14;-1.30;99.90
4081;DHT22;2055;50.074;8.436;2024-01-15T02:18:14;-1.30;99.90
4081;DHT22;2055;50.074;8.436;2024-01-15T02:20:40;-1.30;99.90
4081;DHT22;2055;50.074;8.436;2024-01-15T02:23:10;-1.40;99.90
4081;DHT22;2055;50.074;8.436;2024-01-15T02:25:44;-1.30;99.90
4081;DHT22;2055;50.074;8.436;2024-01-15T02:28:15;-1.30;99.90
4081;DHT22;2055;50.074;8.436;2024-01-15T02:30:41;-1.30;99.90
4081;DHT22;2055;50.074;8.436;2024-01-15T02:33:08;-1.30;99.90
4081;DHT22;2055;50.074;8.436;2024-01-15T02:35:34;-1.40;99.90
4081;DHT22;2055;50.074;8.436;2024-01-15T02:38:02;-1.30;99.90
4081;DHT22;2055;50.074;8.436;2024-01-15T02:40:27;-0.90;99.90
4081;DHT22;2055;50.074;8.436;2024-01-15T02:42:53;-1.20;99.90
4081;DHT22;2055;50.074;8.436;2024-01-15T02:45:19;-1.20;99.90
4081;DHT22;2055;50.074;8.436;2024-01-15T02:47:45;-1.20;99.90
4081;DHT22;2055;50.074;8.436;2024-01-15T02:50:11;-1.10;99.90
4081;DHT22;2055;50.074;8.436;2024-01-15T02:52:36;-1.10;99.90
4081;DHT22;2055;50.074;8.436;2024-01-15T02:55:02;-1.10;99.90
4081;DHT22;2055;50.074;8.436;2024-01-15T02:57:28;-1.10;99.90
4081;DHT22;2055;50.074;8.436;2024-01-15T02:59:53;-1.00;99.90
4081;DHT22;2055;50.074;8.436;2024-01-15T03:02:19;-1.00;99.90
4081;DHT22;2055;50.074;8.436;2024-01-15T03:04:45;-1.00;99.90
4081;DHT22;2055;50.074;8.436;2024-01-15T03:07:11;-1.00;99.90
4081;DHT22;2055;50.074;8.436;2024-01-15T03:09:37;-1.00;99.90
4081;DHT22;2055;50.074;8.436;2024-01-15T03:12:03;-1.00;99.90
4081;DHT22;2055;50.074;8.436;2024-01-15T03:14:28;-1.00;99.90
4081;DHT22;2055;50.074;8.436;2024-01-15T03:16:54;-1.00;99.90
4081;DHT22;2055;50.074;8.436;2024-01-15T03:19:19;-1.10;99.90
4081;DHT22;2055;50.074;8.436;2024-01-15T03:24:11;-1.00;99.90
4081;DHT22;2055;50.074;8.436;2024-01-15T03:26:36;-1.00;99.90
4081;DHT22;2055;50.074;8.436;2024-01-15T03:29:02;-1.00;99.90
4081;DHT22;2055;50.074;8.436;2024-01-15T03:31:27;-1.00;99.90
4081;DHT22;2055;50.074;8.436;2024-01-15T03:33:53;-1.00;99.90
4081;DHT22;2055;50.074;8.436;2024-01-15T03:36:18;-1.00;99.90
4081;DHT22;2055;50.074;8.436;2024-01-15T03:38:44;-1.00;99.90
4081;DHT22;2055;50.074;8.436;2024-01-15T03:41:09;-0.90;99.90
4081;DHT22;2055;50.074;8.436;2024-01-15T03:43:35;-1.00;99.90
4081;DHT22;2055;50.074;8.436;2024-01-15T03:46:01;-0.90;99.90
4081;DHT22;2055;50.074;8.436;2024-01-15T03:48:27;-0.90;99.90
4081;DHT22;2055;50.074;8.436;2024-01-15T03:50:53;-0.90;99.90
4081;DHT22;2055;50.074;8.436;2024-01-15T03:53:18;-0.90;99.90
4081;DHT22;2055;50.074;8.436;2024-01-15T03:55:44;-0.90;99.90
4081;DHT22;2055;50.074;8.436;2024-01-15T03:58:09;-1.00;99.90
4081;DHT22;2055;50.074;8.436;2024-01-15T04:00:35;-1.00;99.90
4081;DHT22;2055;50.074;8.436;2024-01-15T04:03:00;-1.00;99.90
4081;DHT22;2055;50.074;8.436;2024-01-15T04:05:26;-1.00;99.90
4081;DHT22;2055;50.074;8.436;2024-01-15T04:07:52;-1.00;99.90
4081;DHT22;2055;50.074;8.436;2024-01-15T04:10:17;-1.00;99.90
4081;DHT22;2055;50.074;8.436;2024-01-15T04:12:43;-0.90;99.90
4081;DHT22;2055;50.074;8.436;2024-01-15T04:15:11;-0.90;99.90
4081;DHT22;2055;50.074;8.436;2024-01-15T04:17:37;-0.90;99.90
4081;DHT22;2055;50.074;8.436;2024-01-15T04:20:03;-0.90;99.90
4081;DHT22;2055;50.074;8.436;2024-01-15T04:22:29;-1.00;99.90
4081;DHT22;2055;50.074;8.436;2024-01-15T04:24:54;-0.90;99.90
4081;DHT22;2055;50.074;8.436;2024-01-15T04:27:20;-0.90;99.90
4081;DHT22;2055;50.074;8.436;2024-01-15T04:29:45;-0.90;99.90
4081;DHT22;2055;50.074;8.436;2024-01-15T04:32:11;-0.90;99.90
4081;DHT22;2055;50.074;8.436;2024-01-15T04:34:37;-0.90;99.90
4081;DHT22;2055;50.074;8.436;2024-01-15T04:37:02;-1.00;99.90
4081;DHT22;2055;50.074;8.436;2024-01-15T04:39:28;-1.00;99.90
4081;DHT22;2055;50.074;8.436;2024-01-15T04:41:54;-1.00;99.90
4081;DHT22;2055;50.074;8.436;2024-01-15T04:44:19;-0.70;99.90
4081;DHT22;2055;50.074;8.436;2024-01-15T04:46:45;-0.90;99.90
4081;DHT22;2055;50.074;8.436;2024-01-15T04:49:11;-0.90;99.90
4081;DHT22;2055;50.074;8.436;2024-01-15T04:54:03;-0.90;99.90
4081;DHT22;2055;50.074;8.436;2024-01-15T04:56:29;-0.90;99.90
4081;DHT22;2055;50.074;8.436;2024-01-15T04:58:54;-0.80;99.90
4081;DHT22;2055;50.074;8.436;2024-01-15T05:01:20;-1.00;99.90
4081;DHT22;2055;50.074;8.436;2024-01-15T05:03:45;-1.00;99.90
4081;DHT22;2055;50.074;8.436;2024-01-15T05:06:11;-1.00;99.90
4081;DHT22;2055;50.074;8.436;2024-01-15T05:08:36;-1.00;99.90
4081;DHT22;2055;50.074;8.436;2024-01-15T05:11:02;-1.00;99.90
4081;DHT22;2055;50.074;8.436;2024-01-15T05:13:28;-1.00;99.90
4081;DHT22;2055;50.074;8.436;2024-01-15T05:15:53;-0.90;99.90
4081;DHT22;2055;50.074;8.436;2024-01-15T05:18:19;-0.90;99.90
4081;DHT22;2055;50.074;8.436;2024-01-15T05:20:45;-0.90;99.90
4081;DHT22;2055;50.074;8.436;2024-01-15T05:23:10;-0.90;99.90
4081;DHT22;2055;50.074;8.436;2024-01-15T05:25:36;-0.90;99.90
4081;DHT22;2055;50.074;8.436;2024-01-15T05:28:01;-0.90;99.90
4081;DHT22;2055;50.074;8.436;2024-01-15T05:30:27;-0.90;99.90
4081;DHT22;2055;50.074;8.436;2024-01-15T05:32:53;-0.90;99.90
4081;DHT22;2055;50.074;8.436;2024-01-15T05:35:18;-0.90;99.90
4081;DHT22;2055;50.074;8.436;2024-01-15T05:37:45;-0.90;99.90
4081;DHT22;2055;50.074;8.436;2024-01-15T05:40:11;-0.90;99.90
4081;DHT22;2055;50.074;8.436;2024-01-15T05:42:39;-0.90;99.90
4081;DHT22;2055;50.074;8.436;2024-01-15T05:45:06;-0.80;99.90
4081;DHT22;2055;50.074;8.436;2024-01-15T05:47:31;-0.80;99.90
4081;DHT22;2055;50.074;8.436;2024-01-15T05:49:57;-0.90;99.90
4081;DHT22;2055;50.074;8.436;2024-01-15T05:52:23;-0.70;99.90
4081;DHT22;2055;50.074;8.436;2024-01-15T05:54:49;-1.00;99.90
4081;DHT22;2055;50.074;8.436;2024-01-15T05:57:15;-1.10;99.90
4081;DHT22;2055;50.074;8.436;2024-01-15T05:59:42;-1.00;99.90
4081;DHT22;2055;50.074;8.436;2024-01-15T06:02:07;-1.00;99.90
4081;DHT22;2055;50.074;8.436;2024-01-15T06:04:33;-1.00;99.90
4081;DHT22;2055;50.074;8.436;2024-01-15T06:06:58;-1.00;99.90
4081;DHT22;2055;50.074;8.436;2024-01-15T06:09:24;-1.00;99.90
4081;DHT22;2055;50.074;8.436;2024-01-15T06:11:49;-0.90;99.90
4081;DHT22;2055;50.074;8.436;2024-01-15T06:14:15;-1.20;99.90
4081;DHT22;2055;50.074;8.436;2024-01-15T06:16:41;-0.60;99.90
4081;DHT22;2055;50.074;8.436;2024-01-15T06:19:06;-0.70;99.90
4081;DHT22;2055;50.074;8.436;2024-01-15T06:21:32;-1.00;99.90
4081;DHT22;2055;50.074;8.436;2024-01-15T06:23:58;-1.00;99.90
4081;DHT22;2055;50.074;8.436;2024-01-15T06:28:50;-1.00;99.90
4081;DHT22;2055;50.074;8.436;2024-01-15T06:31:15;-0.80;99.90
4081;DHT22;2055;50.074;8.436;2024-01-15T06:33:41;-1.00;99.90
4081;DHT22;2055;50.074;8.436;2024-01-15T06:36:07;-1.00;99.90
4081;DHT22;2055;50.074;8.436;2024-01-15T06:38:33;-1.00;99.90
4081;DHT22;2055;50.074;8.436;2024-01-15T06:40:59;-1.00;99.90
4081;DHT22;2055;50.074;8.436;2024-01-15T06:43:24;-1.00;99.90
4081;DHT22;2055;50.074;8.436;2024-01-15T06:45:50;-0.70;99.90
4081;DHT22;2055;50.074;8.436;2024-01-15T06:48:16;-0.90;99.90
4081;DHT22;2055;50.074;8.436;2024-01-15T06:50:45;-0.90;99.90
4081;DHT22;2055;50.074;8.436;2024-01-15T06:53:11;-0.90;99.90
4081;DHT22;2055;50.074;8.436;2024-01-15T06:55:38;-0.90;99.90
4081;DHT22;2055;50.074;8.436;2024-01-15T06:58:04;-0.90;99.90
4081;DHT22;2055;50.074;8.436;2024-01-15T07:00:29;-0.90;99.90
4081;DHT22;2055;50.074;8.436;2024-01-15T07:02:55;-0.80;99.90
4081;DHT22;2055;50.074;8.436;2024-01-15T07:05:21;-0.80;99.90
4081;DHT22;2055;50.074;8.436;2024-01-15T07:07:46;-0.80;99.90
4081;DHT22;2055;50.074;8.436;2024-01-15T07:10:13;-0.80;99.90
4081;DHT22;2055;50.074;8.436;2024-01-15T07:12:41;-0.70;99.90
4081;DHT22;2055;50.074;8.436;2024-01-15T07:15:07;-0.70;99.90
4081;DHT22;2055;50.074;8.436;2024-01-15T07:17:34;-0.70;99.90
4081;DHT22;2055;50.074;8.436;2024-01-15T07:19:59;-0.50;99.90
4081;DHT22;2055;50.074;8.436;2024-01-15T07:22:25;-1.00;99.90
4081;DHT22;2055;50.074;8.436;2024-01-15T07:24:50;-0.40;99.90
4081;DHT22;2055;50.074;8.436;2024-01-15T07:27:16;-0.70;99.90
4081;DHT22;2055;50.074;8.436;2024-01-15T07:29:41;-0.60;99.90
4081;DHT22;2055;50.074;8.436;2024-01-15T07:34:35;-0.60;99.90
4081;DHT22;2055;50.074;8.436;2024-01-15T07:37:00;-0.60;99.90
4081;DHT22;2055;50.074;8.436;2024-01-15T07:39:26;-0.60;99.90
4081;DHT22;2055;50.074;8.436;2024-01-15T07:41:54;-0.50;99.90
4081;DHT22;2055;50.074;8.436;2024-01-15T07:44:19;-0.50;99.90
4081;DHT22;2055;50.074;8.436;2024-01-15T07:46:46;-0.40;99.90
4081;DHT22;2055;50.074;8.436;2024-01-15T07:49:12;-0.40;99.90
4081;DHT22;2055;50.074;8.436;2024-01-15T07:51:38;-0.40;99.90
4081;DHT22;2055;50.074;8.436;2024-01-15T07:54:03;-0.50;99.90
4081;DHT22;2055;50.074;8.436;2024-01-15T07:56:29;-0.40;99.90
4081;DHT22;2055;50.074;8.436;2024-01-15T07:58:54;-0.40;99.90
4081;DHT22;2055;50.074;8.436;2024-01-15T08:01:21;-0.40;99.90
4081;DHT22;2055;50.074;8.436;2024-01-15T08:03:46;-0.40;99.90
4081;DHT22;2055;50.074;8.436;2024-01-15T08:06:12;-0.30;99.90
4081;DHT22;2055;50.074;8.436;2024-01-15T08:08:38;-0.30;99.90
4081;DHT22;2055;50.074;8.436;2024-01-15T08:11:04;-0.20;99.90
4081;DHT22;2055;50.074;8.436;2024-01-15T08:13:30;-0.20;99.90
4081;DHT22;2055;50.074;8.436;2024-01-15T08:15:56;-0.10;99.90
4081;DHT22;2055;50.074;8.436;2024-01-15T08:18:21;-0.10;99.90
4081;DHT22;2055;50.074;8.436;2024-01-15T08:20:47;-0.20;99.90
4081;DHT22;2055;50.074;8.436;2024-01-15T08:23:13;-0.20;99.90
4081;DHT22;2055;50.074;8.436;2024-01-15T08:25:38;-0.20;99.90
4081;DHT22;2055;50.074;8.436;2024-01-15T08:30:30;-0.20;99.90
4081;DHT22;2055;50.074;8.436;2024-01-15T08:32:56;-0.20;99.90
4081;DHT22;2055;50.074;8.436;2024-01-15T08:35:22;-0.30;99.90
4081;DHT22;2055;50.074;8.436;2024-01-15T08:37:51;-0.10;99.90
4081;DHT22;2055;50.074;8.436;2024-01-15T08:40:17;-0.20;99.90
4081;DHT22;2055;50.074;8.436;2024-01-15T08:42:43;-0.20;99.90
4081;DHT22;2055;50.074;8.436;2024-01-15T08:45:09;-0.20;99.90
4081;DHT22;2055;50.074;8.436;2024-01-15T08:47:35;-0.20;99.90
4081;DHT22;2055;50.074;8.436;2024-01-15T08:50:01;-0.20;99.90
4081;DHT22;2055;50.074;8.436;2024-01-15T08:59:47;-0.30;99.90
4081;DHT22;2055;50.074;8.436;2024-01-15T09:04:38;-0.30;99.90
4081;DHT22;2055;50.074;8.436;2024-01-15T09:07:04;-0.30;99.90
4081;DHT22;2055;50.074;8.436;2024-01-15T09:11:56;-0.10;99.90
4081;DHT22;2055;50.074;8.436;2024-01-15T09:14:21;0.00;99.90
4081;DHT22;2055;50.074;8.436;2024-01-15T09:19:15;0.40;99.90
4081;DHT22;2055;50.074;8.436;2024-01-15T09:21:40;0.80;99.90
4081;DHT22;2055;50.074;8.436;2024-01-15T09:26:32;0.90;99.90
4081;DHT22;2055;50.074;8.436;2024-01-15T09:28:57;1.00;99.90
4081;DHT22;2055;50.074;8.436;2024-01-15T09:33:49;1.00;99.90
4081;DHT22;2055;50.074;8.436;2024-01-15T09:36:17;0.80;99.90
4081;DHT22;2055;50.074;8.436;2024-01-15T09:41:09;1.00;99.90
4081;DHT22;2055;50.074;8.436;2024-01-15T09:43:36;0.90;99.90
4081;DHT22;2055;50.074;8.436;2024-01-15T09:46:03;0.80;99.90
4081;DHT22;2055;50.074;8.436;2024-01-15T09:48:29;0.90;99.90
4081;DHT22;2055;50.074;8.436;2024-01-15T09:50:57;1.00;99.90
4081;DHT22;2055;50.074;8.436;2024-01-15T09:53:25;1.10;99.90
4081;DHT22;2055;50.074;8.436;2024-01-15T09:55:52;1.10;99.90
4081;DHT22;2055;50.074;8.436;2024-01-15T10:00:44;1.30;99.90
4081;DHT22;2055;50.074;8.436;2024-01-15T10:03:10;1.30;99.90
4081;DHT22;2055;50.074;8.436;2024-01-15T10:05:37;1.20;99.90
4081;DHT22;2055;50.074;8.436;2024-01-15T10:08:03;1.30;99.90
4081;DHT22;2055;50.074;8.436;2024-01-15T10:10:29;1.30;99.90
4081;DHT22;2055;50.074;8.436;2024-01-15T10:12:55;1.40;99.90
4081;DHT22;2055;50.074;8.436;2024-01-15T10:15:23;1.40;99.90
4081;DHT22;2055;50.074;8.436;2024-01-15T10:17:50;1.40;99.90
4081;DHT22;2055;50.074;8.436;2024-01-15T10:20:16;1.60;99.90
4081;DHT22;2055;50.074;8.436;2024-01-15T10:22:42;1.20;99.90
4081;DHT22;2055;50.074;8.436;2024-01-15T10:25:14;1.30;99.90
4081;DHT22;2055;50.074;8.436;2024-01-15T10:27:41;1.60;99.90
4081;DHT22;2055;50.074;8.436;2024-01-15T10:30:12;1.70;99.90
4081;DHT22;2055;50.074;8.436;2024-01-15T10:32:39;1.80;99.90
4081;DHT22;2055;50.074;8.436;2024-01-15T10:35:07;1.80;99.90
4081;DHT22;2055;50.074;8.436;2024-01-15T10:37:33;1.90;99.90
4081;DHT22;2055;50.074;8.436;2024-01-15T10:40:02;1.80;99.90
4081;DHT22;2055;50.074;8.436;2024-01-15T10:42:30;1.50;99.90
4081;DHT22;2055;50.074;8.436;2024-01-15T10:44:56;1.40;99.90
4081;DHT22;2055;50.074;8.436;2024-01-15T10:47:22;1.30;99.90
4081;DHT22;2055;50.074;8.436;2024-01-15T10:49:48;1.20;99.90
4081;DHT22;2055;50.074;8.436;2024-01-15T10:52:13;1.20;99.90
4081;DHT22;2055;50.074;8.436;2024-01-15T10:54:41;1.20;99.90
4081;DHT22;2055;50.074;8.436;2024-01-15T10:57:09;1.40;99.90
4081;DHT22;2055;50.074;8.436;2024-01-15T10:59:34;1.50;99.90
4081;DHT22;2055;50.074;8.436;2024-01-15T11:02:01;1.50;99.90
4081;DHT22;2055;50.074;8.436;2024-01-15T11:04:27;1.60;99.90
4081;DHT22;2055;50.074;8.436;2024-01-15T11:06:54;1.60;99.90
4081;DHT22;2055;50.074;8.436;2024-01-15T11:09:21;1.60;99.90
4081;DHT22;2055;50.074;8.436;2024-01-15T11:11:47;1.70;99.90
4081;DHT22;2055;50.074;8.436;2024-01-15T11:14:47;1.70;99.90
4081;DHT22;2055;50.074;8.436;2024-01-15T11:17:14;1.80;99.90
4081;DHT22;2055;50.074;8.436;2024-01-15T11:19:46;1.80;99.90
4081;DHT22;2055;50.074;8.436;2024-01-15T11:24:57;2.40;99.90
4081;DHT22;2055;50.074;8.436;2024-01-15T11:27:48;2.10;99.90
4081;DHT22;2055;50.074;8.436;2024-01-15T11:30:17;2.10;99.90
4081;DHT22;2055;50.074;8.436;2024-01-15T11:32:43;2.00;99.90
4081;DHT22;2055;50.074;8.436;2024-01-15T11:35:10;1.90;99.90
4081;DHT22;2055;50.074;8.436;2024-01-15T11:43:05;2.00;99.90
4081;DHT22;2055;50.074;8.436;2024-01-15T11:45:32;2.10;99.90
4081;DHT22;2055;50.074;8.436;2024-01-15T11:50:24;2.10;99.90
4081;DHT22;2055;50.074;8.436;2024-01-15T11:53:01;1.90;99.90
4081;DHT22;2055;50.074;8.436;2024-01-15T11:55:34;2.00;99.90
4081;DHT22;2055;50.074;8.436;2024-01-15T11:58:01;2.40;99.90
4081;DHT22;2055;50.074;8.436;2024-01-15T12:00:28;2.60;99.90
4081;DHT22;2055;50.074;8.436;2024-01-15T12:02:54;2.60;99.90
4081;DHT22;2055;50.074;8.436;2024-01-15T12:05:20;2.50;99.90
4081;DHT22;2055;50.074;8.436;2024-01-15T12:07:48;2.50;99.90
4081;DHT22;2055;50.074;8.436;2024-01-15T12:10:20;2.40;99.90
4081;DHT22;2055;50.074;8.436;2024-01-15T12:12:54;2.20;99.90
4081;DHT22;2055;50.074;8.436;2024-01-15T12:15:22;2.30;99.90
4081;DHT22;2055;50.074;8.436;2024-01-15T12:17:48;2.40;99.90
4081;DHT22;2055;50.074;8.436;2024-01-15T12:20:14;2.30;99.90
4081;DHT22;2055;50.074;8.436;2024-01-15T12:22:41;2.20;99.90
4081;DHT22;2055;50.074;8.436;2024-01-15T12:25:07;2.30;99.90
4081;DHT22;2055;50.074;8.436;2024-01-15T12:27:32;2.30;99.90
4081;DHT22;2055;50.074;8.436;2024-01-15T12:29:58;2.40;99.90
4081;DHT22;2055;50.074;8.436;2024-01-15T12:32:24;2.40;99.90
4081;DHT22;2055;50.074;8.436;2024-01-15T12:34:50;2.40;99.90
4081;DHT22;2055;50.074;8.436;2024-01-15T12:37:19;2.40;99.90
4081;DHT22;2055;50.074;8.436;2024-01-15T12:39:46;2.40;99.90
4081;DHT22;2055;50.074;8.436;2024-01-15T12:42:11;2.50;99.90
4081;DHT22;2055;50.074;8.436;2024-01-15T12:44:37;2.40;99.90
4081;DHT22;2055;50.074;8.436;2024-01-15T12:47:06;2.40;99.90
4081;DHT22;2055;50.074;8.436;2024-01-15T12:49:32;2.90;99.90
4081;DHT22;2055;50.074;8.436;2024-01-15T12:51:59;2.30;99.90
4081;DHT22;2055;50.074;8.436;2024-01-15T12:54:25;2.30;99.90
4081;DHT22;2055;50.074;8.436;2024-01-15T12:56:51;2.40;99.90
4081;DHT22;2055;50.074;8.436;2024-01-15T12:59:17;3.00;99.90
4081;DHT22;2055;50.074;8.436;2024-01-15T13:01:44;2.50;99.90
4081;DHT22;2055;50.074;8.436;2024-01-15T13:04:09;2.50;99.90
4081;DHT22;2055;50.074;8.436;2024-01-15T13:06:35;2.50;99.90
4081;DHT22;2055;50.074;8.436;2024-01-15T13:09:02;2.50;99.90
4081;DHT22;2055;50.074;8.436;2024-01-15T13:11:33;2.50;99.90
4081;DHT22;2055;50.074;8.436;2024-01-15T13:13:59;2.40;99.90
4081;DHT22;2055;50.074;8.436;2024-01-15T13:18:56;2.50;99.90
4081;DHT22;2055;50.074;8.436;2024-01-15T13:21:22;2.50;99.90
4081;DHT22;2055;50.074;8.436;2024-01-15T13:23:48;2.40;99.90
4081;DHT22;2055;50.074;8.436;2024-01-15T13:26:13;2.50;99.90
4081;DHT22;2055;50.074;8.436;2024-01-15T13:28:39;2.50;99.90
4081;DHT22;2055;50.074;8.436;2024-01-15T13:31:05;2.50;99.90
4081;DHT22;2055;50.074;8.436;2024-01-15T13:33:30;2.50;99.90
4081;DHT22;2055;50.074;8.436;2024-01-15T13:35:56;2.50;99.90
4081;DHT22;2055;50.074;8.436;2024-01-15T13:38:21;2.60;99.90
4081;DHT22;2055;50.074;8.436;2024-01-15T13:40:47;2.50;99.90
4081;DHT22;2055;50.074;8.436;2024-01-15T13:45:42;2.20;99.90
4081;DHT22;2055;50.074;8.436;2024-01-15T13:48:08;1.80;99.90
4081;DHT22;2055;50.074;8.436;2024-01-15T13:50:34;1.70;99.90
4081;DHT22;2055;50.074;8.436;2024-01-15T13:53:01;2.90;99.90
4081;DHT22;2055;50.074;8.436;2024-01-15T13:55:27;3.40;99.90
4081;DHT22;2055;50.074;8.436;2024-01-15T13:57:54;3.90;99.90
4081;DHT22;2055;50.074;8.436;2024-01-15T14:07:38;2.90;99.90
4081;DHT22;2055;50.074;8.436;2024-01-15T14:10:09;2.50;99.90
4081;DHT22;2055;50.074;8.436;2024-01-15T14:12:35;2.50;99.90
4081;DHT22;2055;50.074;8.436;2024-01-15T14:15:05;2.30;99.90
4081;DHT22;2055;50.074;8.436;2024-01-15T14:19:57;2.90;99.90
4081;DHT22;2055;50.074;8.436;2024-01-15T14:22:23;2.80;99.90
4081;DHT22;2055;50.074;8.436;2024-01-15T14:24:48;2.40;99.90
4081;DHT22;2055;50.074;8.436;2024-01-15T14:27:14;2.50;99.90
4081;DHT22;2055;50.074;8.436;2024-01-15T14:29:40;2.70;99.90
4081;DHT22;2055;50.074;8.436;2024-01-15T14:32:06;2.70;99.90
4081;DHT22;2055;50.074;8.436;2024-01-15T14:34:31;3.00;99.90
4081;DHT22;2055;50.074;8.436;2024-01-15T14:36:57;2.90;99.90
4081;DHT22;2055;50.074;8.436;2024-01-15T14:39:23;2.70;99.90
4081;DHT22;2055;50.074;8.436;2024-01-15T14:41:49;2.70;99.90
4081;DHT22;2055;50.074;8.436;2024-01-15T14:44:14;2.60;99.90
4081;DHT22;2055;50.074;8.436;2024-01-15T14:46:40;2.80;99.90
4081;DHT22;2055;50.074;8.436;2024-01-15T14:49:06;2.70;99.90
4081;DHT22;2055;50.074;8.436;2024-01-15T14:51:32;2.50;99.90
4081;DHT22;2055;50.074;8.436;2024-01-15T14:53:58;2.40;99.90
4081;DHT22;2055;50.074;8.436;2024-01-15T14:56:23;2.20;99.90
4081;DHT22;2055;50.074;8.436;2024-01-15T14:58:49;2.10;99.90
4081;DHT22;2055;50.074;8.436;2024-01-15T15:01:15;2.20;99.90
4081;DHT22;2055;50.074;8.436;2024-01-15T15:03:40;2.50;99.90
4081;DHT22;2055;50.074;8.436;2024-01-15T15:06:06;2.80;99.90
4081;DHT22;2055;50.074;8.436;2024-01-15T15:08:35;2.70;99.90
4081;DHT22;2055;50.074;8.436;2024-01-15T15:11:01;2.60;99.90
4081;DHT22;2055;50.074;8.436;2024-01-15T15:13:27;2.70;99.90
4081;DHT22;2055;50.074;8.436;2024-01-15T15:15:53;2.60;99.90
4081;DHT22;2055;50.074;8.436;2024-01-15T15:18:21;2.50;99.90
4081;DHT22;2055;50.074;8.436;2024-01-15T15:20:50;2.60;99.90
4081;DHT22;2055;50.074;8.436;2024-01-15T15:23:17;2.40;99.90
4081;DHT22;2055;50.074;8.436;2024-01-15T15:25:43;2.20;99.90
4081;DHT22;2055;50.074;8.436;2024-01-15T15:28:09;2.30;99.90
4081;DHT22;2055;50.074;8.436;2024-01-15T15:30:37;2.30;99.90
4081;DHT22;2055;50.074;8.436;2024-01-15T15:33:02;2.20;99.90
4081;DHT22;2055;50.074;8.436;2024-01-15T15:35:28;2.30;99.90
4081;DHT22;2055;50.074;8.436;2024-01-15T15:37:54;2.20;99.90
4081;DHT22;2055;50.074;8.436;2024-01-15T15:40:20;3.60;99.90
4081;DHT22;2055;50.074;8.436;2024-01-15T15:42:46;2.30;99.90
4081;DHT22;2055;50.074;8.436;2024-01-15T15:45:12;2.20;99.90
4081;DHT22;2055;50.074;8.436;2024-01-15T15:47:38;2.20;99.90
4081;DHT22;2055;50.074;8.436;2024-01-15T15:50:04;2.00;99.90
4081;DHT22;2055;50.074;8.436;2024-01-15T15:52:30;2.20;99.90
4081;DHT22;2055;50.074;8.436;2024-01-15T15:54:55;2.10;99.90
4081;DHT22;2055;50.074;8.436;2024-01-15T15:57:22;2.00;99.90
4081;DHT22;2055;50.074;8.436;2024-01-15T15:59:48;2.00;99.90
4081;DHT22;2055;50.074;8.436;2024-01-15T16:02:14;2.10;99.90
4081;DHT22;2055;50.074;8.436;2024-01-15T16:04:40;2.20;99.90
4081;DHT22;2055;50.074;8.436;2024-01-15T16:07:05;2.00;99.90
4081;DHT22;2055;50.074;8.436;2024-01-15T16:12:01;2.00;99.90
4081;DHT22;2055;50.074;8.436;2024-01-15T16:14:26;1.90;99.90
4081;DHT22;2055;50.074;8.436;2024-01-15T16:16:52;1.90;99.90
4081;DHT22;2055;50.074;8.436;2024-01-15T16:19:22;2.00;99.90
4081;DHT22;2055;50.074;8.436;2024-01-15T16:21:48;2.20;99.90
4081;DHT22;2055;50.074;8.436;2024-01-15T16:24:14;2.10;99.90
4081;DHT22;2055;50.074;8.436;2024-01-15T16:26:40;2.10;99.90
4081;DHT22;2055;50.074;8.436;2024-01-15T16:29:06;2.10;99.90
4081;DHT22;2055;50.074;8.436;2024-01-15T16:31:32;2.10;99.90
4081;DHT22;2055;50.074;8.436;2024-01-15T16:33:58;2.20;99.90
4081;DHT22;2055;50.074;8.436;2024-01-15T16:36:24;2.20;99.90
4081;DHT22;2055;50.074;8.436;2024-01-15T16:38:50;2.20;99.90
4081;DHT22;2055;50.074;8.436;2024-01-15T16:41:16;2.30;99.90
4081;DHT22;2055;50.074;8.436;2024-01-15T16:43:42;2.30;99.90
4081;DHT22;2055;50.074;8.436;2024-01-15T16:46:07;2.20;99.90
4081;DHT22;2055;50.074;8.436;2024-01-15T16:48:33;2.10;99.90
4081;DHT22;2055;50.074;8.436;2024-01-15T16:50:59;2.10;99.90
4081;DHT22;2055;50.074;8.436;2024-01-15T16:53:24;2.10;99.90
4081;DHT22;2055;50.074;8.436;2024-01-15T16:55:52;2.50;99.90
4081;DHT22;2055;50.074;8.436;2024-01-15T16:58:17;2.10;99.90
4081;DHT22;2055;50.074;8.436;2024-01-15T17:00:45;2.00;99.90
4081;DHT22;2055;50.074;8.436;2024-01-15T17:03:10;1.90;99.90
4081;DHT22;2055;50.074;8.436;2024-01-15T17:05:36;2.30;99.90
4081;DHT22;2055;50.074;8.436;2024-01-15T17:08:01;1.90;99.90
4081;DHT22;2055;50.074;8.436;2024-01-15T17:10:28;1.80;99.90
4081;DHT22;2055;50.074;8.436;2024-01-15T17:12:54;1.70;99.90
4081;DHT22;2055;50.074;8.436;2024-01-15T17:15:19;1.80;99.90
4081;DHT22;2055;50.074;8.436;2024-01-15T17:17:45;1.80;99.90
4081;DHT22;2055;50.074;8.436;2024-01-15T17:20:12;1.80;99.90